sensor_id;sensor_type;location;lat;lon;timestamp;P1;durP1;ratioP1;P2;durP2;ratioP2
13764;SDS011;6953;48.810;9.204;2023-10-19T00:00:35;0.40;;;0.40;;
13764;SDS011;6953;48.810;9.204;2023-10-19T00:03:09;0.55;;;0.55;;
13764;SDS011;6953;48.810;9.204;2023-10-19T00:05:35;0.30;;;0.30;;
13764;SDS011;6953;48.810;9.204;2023-10-19T00:08:01;0.50;;;0.50;;
13764;SDS011;6953;48.810;9.204;2023-10-19T00:10:40;0.40;;;0.40;;
13764;SDS011;6953;48.810;9.204;2023-10-19T00:13:08;0.40;;;0.40;;
13764;SDS011;6953;48.810;9.204;2023-10-19T00:15:37;0.50;;;0.50;;
13764;SDS011;6953;48.810;9.204;2023-10-19T00:18:17;0.40;;;0.40;;
13764;SDS011;6953;48.810;9.204;2023-10-19T00:20:43;0.40;;;0.40;;
13764;SDS011;6953;48.810;9.204;2023-10-19T00:23:10;0.40;;;0.40;;
13764;SDS011;6953;48.810;9.204;2023-10-19T00:25:38;0.40;;;0.40;;
13764;SDS011;6953;48.810;9.204;2023-10-19T00:28:06;0.40;;;0.40;;
13764;SDS011;6953;48.810;9.204;2023-10-19T00:30:37;0.30;;;0.30;;
13764;SDS011;6953;48.810;9.204;2023-10-19T00:33:03;0.32;;;0.32;;
13764;SDS011;6953;48.810;9.204;2023-10-19T00:35:35;0.47;;;0.47;;
13764;SDS011;6953;48.810;9.204;2023-10-19T00:38:01;0.50;;;0.50;;
13764;SDS011;6953;48.810;9.204;2023-10-19T00:40:49;0.50;;;0.50;;
13764;SDS011;6953;48.810;9.204;2023-10-19T00:43:30;0.40;;;0.40;;
13764;SDS011;6953;48.810;9.204;2023-10-19T00:46:01;0.30;;;0.30;;
13764;SDS011;6953;48.810;9.204;2023-10-19T00:48:28;0.40;;;0.40;;
13764;SDS011;6953;48.810;9.204;2023-10-19T00:50:54;0.30;;;0.30;;
13764;SDS011;6953;48.810;9.204;2023-10-19T00:53:33;0.40;;;0.40;;
13764;SDS011;6953;48.810;9.204;2023-10-19T00:56:08;0.40;;;0.40;;
13764;SDS011;6953;48.810;9.204;2023-10-19T00:58:34;0.50;;;0.50;;
13764;SDS011;6953;48.810;9.204;2023-10-19T01:01:04;0.50;;;0.50;;
13764;SDS011;6953;48.810;9.204;2023-10-19T01:03:32;0.32;;;0.32;;
13764;SDS011;6953;48.810;9.204;2023-10-19T01:06:02;0.30;;;0.30;;
13764;SDS011;6953;48.810;9.204;2023-10-19T01:08:35;0.45;;;0.45;;
13764;SDS011;6953;48.810;9.204;2023-10-19T01:11:07;0.50;;;0.50;;
13764;SDS011;6953;48.810;9.204;2023-10-19T01:13:37;0.35;;;0.35;;
13764;SDS011;6953;48.810;9.204;2023-10-19T01:16:03;0.50;;;0.50;;
13764;SDS011;6953;48.810;9.204;2023-10-19T01:18:30;0.40;;;0.40;;
13764;SDS011;6953;48.810;9.204;2023-10-19T01:20:58;0.40;;;0.40;;
13764;SDS011;6953;48.810;9.204;2023-10-19T01:23:31;0.30;;;0.30;;
13764;SDS011;6953;48.810;9.204;2023-10-19T01:25:59;0.30;;;0.30;;
13764;SDS011;6953;48.810;9.204;2023-10-19T01:31:06;0.40;;;0.40;;
13764;SDS011;6953;48.810;9.204;2023-10-19T01:33:33;0.40;;;0.40;;
13764;SDS011;6953;48.810;9.204;2023-10-19T01:36:01;0.40;;;0.40;;
13764;SDS011;6953;48.810;9.204;2023-10-19T01:38:44;0.30;;;0.30;;
13764;SDS011;6953;48.810;9.204;2023-10-19T01:41:12;0.30;;;0.30;;
13764;SDS011;6953;48.810;9.204;2023-10-19T01:43:39;0.40;;;0.40;;
13764;SDS011;6953;48.810;9.204;2023-10-19T01:46:05;0.40;;;0.40;;
13764;SDS011;6953;48.810;9.204;2023-10-19T01:48:36;0.40;;;0.40;;
13764;SDS011;6953;48.810;9.204;2023-10-19T01:51:04;0.30;;;0.30;;
13764;SDS011;6953;48.810;9.204;2023-10-19T01:53:30;0.30;;;0.30;;
13764;SDS011;6953;48.810;9.204;2023-10-19T01:55:57;0.40;;;0.40;;
13764;SDS011;6953;48.810;9.204;2023-10-19T01:58:26;0.50;;;0.50;;
13764;SDS011;6953;48.810;9.204;2023-10-19T02:00:54;0.40;;;0.40;;
13764;SDS011;6953;48.810;9.204;2023-10-19T02:03:25;0.28;;;0.28;;
13764;SDS011;6953;48.810;9.204;2023-10-19T02:05:59;0.50;;;0.50;;
13764;SDS011;6953;48.810;9.204;2023-10-19T02:08:26;0.50;;;0.50;;
13764;SDS011;6953;48.810;9.204;2023-10-19T02:10:52;0.40;;;0.40;;
13764;SDS011;6953;48.810;9.204;2023-10-19T02:13:19;0.45;;;0.45;;
13764;SDS011;6953;48.810;9.204;2023-10-19T02:15:45;0.32;;;0.32;;
13764;SDS011;6953;48.810;9.204;2023-10-19T02:18:10;0.40;;;0.40;;
13764;SDS011;6953;48.810;9.204;2023-10-19T02:20:36;0.40;;;0.40;;
13764;SDS011;6953;48.810;9.204;2023-10-19T02:23:06;0.50;;;0.50;;
13764;SDS011;6953;48.810;9.204;2023-10-19T02:25:32;0.30;;;0.30;;
13764;SDS011;6953;48.810;9.204;2023-10-19T02:28:04;0.43;;;0.43;;
13764;SDS011;6953;48.810;9.204;2023-10-19T02:30:32;0.40;;;0.40;;
13764;SDS011;6953;48.810;9.204;2023-10-19T02:32:59;0.32;;;0.32;;
13764;SDS011;6953;48.810;9.204;2023-10-19T02:35:25;0.40;;;0.40;;
13764;SDS011;6953;48.810;9.204;2023-10-19T02:37:52;0.32;;;0.32;;
13764;SDS011;6953;48.810;9.204;2023-10-19T02:40:17;0.50;;;0.50;;
13764;SDS011;6953;48.810;9.204;2023-10-19T02:42:48;0.40;;;0.40;;
13764;SDS011;6953;48.810;9.204;2023-10-19T02:45:14;0.40;;;0.40;;
13764;SDS011;6953;48.810;9.204;2023-10-19T02:47:41;0.40;;;0.40;;
13764;SDS011;6953;48.810;9.204;2023-10-19T02:50:10;0.50;;;0.50;;
13764;SDS011;6953;48.810;9.204;2023-10-19T02:52:40;0.45;;;0.45;;
13764;SDS011;6953;48.810;9.204;2023-10-19T02:55:08;0.40;;;0.40;;
13764;SDS011;6953;48.810;9.204;2023-10-19T02:57:35;0.40;;;0.40;;
13764;SDS011;6953;48.810;9.204;2023-10-19T03:00:03;0.40;;;0.40;;
13764;SDS011;6953;48.810;9.204;2023-10-19T03:02:35;0.43;;;0.43;;
13764;SDS011;6953;48.810;9.204;2023-10-19T03:05:02;0.50;;;0.50;;
13764;SDS011;6953;48.810;9.204;2023-10-19T03:07:34;0.50;;;0.50;;
13764;SDS011;6953;48.810;9.204;2023-10-19T03:09:59;0.40;;;0.40;;
13764;SDS011;6953;48.810;9.204;2023-10-19T03:12:27;0.50;;;0.50;;
13764;SDS011;6953;48.810;9.204;2023-10-19T03:14:52;0.47;;;0.47;;
13764;SDS011;6953;48.810;9.204;2023-10-19T03:17:18;0.50;;;0.50;;
13764;SDS011;6953;48.810;9.204;2023-10-19T03:19:43;0.30;;;0.30;;
13764;SDS011;6953;48.810;9.204;2023-10-19T03:22:09;0.30;;;0.30;;
13764;SDS011;6953;48.810;9.204;2023-10-19T03:24:35;0.50;;;0.50;;
13764;SDS011;6953;48.810;9.204;2023-10-19T03:27:01;0.40;;;0.40;;
13764;SDS011;6953;48.810;9.204;2023-10-19T03:29:33;0.40;;;0.40;;
13764;SDS011;6953;48.810;9.204;2023-10-19T03:32:03;0.50;;;0.50;;
13764;SDS011;6953;48.810;9.204;2023-10-19T03:34:31;0.40;;;0.40;;
13764;SDS011;6953;48.810;9.204;2023-10-19T03:36:57;0.50;;;0.50;;
13764;SDS011;6953;48.810;9.204;2023-10-19T03:39:29;0.40;;;0.40;;
13764;SDS011;6953;48.810;9.204;2023-10-19T03:41:55;0.50;;;0.50;;
13764;SDS011;6953;48.810;9.204;2023-10-19T03:44:20;0.50;;;0.50;;
13764;SDS011;6953;48.810;9.204;2023-10-19T03:46:48;0.30;;;0.30;;
13764;SDS011;6953;48.810;9.204;2023-10-19T03:49:26;0.40;;;0.40;;
13764;SDS011;6953;48.810;9.204;2023-10-19T03:51:55;0.40;;;0.40;;
13764;SDS011;6953;48.810;9.204;2023-10-19T03:54:27;0.50;;;0.50;;
13764;SDS011;6953;48.810;9.204;2023-10-19T03:56:53;0.30;;;0.30;;
13764;SDS011;6953;48.810;9.204;2023-10-19T03:59:21;0.40;;;0.40;;
13764;SDS011;6953;48.810;9.204;2023-10-19T04:01:48;0.40;;;0.40;;
13764;SDS011;6953;48.810;9.204;2023-10-19T04:04:13;0.43;;;0.43;;
13764;SDS011;6953;48.810;9.204;2023-10-19T04:06:39;0.40;;;0.40;;
13764;SDS011;6953;48.810;9.204;2023-10-19T04:09:05;0.40;;;0.40;;
13764;SDS011;6953;48.810;9.204;2023-10-19T04:11:31;0.38;;;0.38;;
13764;SDS011;6953;48.810;9.204;2023-10-19T04:14:13;0.40;;;0.40;;
13764;SDS011;6953;48.810;9.204;2023-10-19T04:16:40;0.40;;;0.40;;
13764;SDS011;6953;48.810;9.204;2023-10-19T04:19:08;0.40;;;0.40;;
13764;SDS011;6953;48.810;9.204;2023-10-19T04:21:36;0.50;;;0.50;;
13764;SDS011;6953;48.810;9.204;2023-10-19T04:24:05;0.30;;;0.30;;
13764;SDS011;6953;48.810;9.204;2023-10-19T04:26:32;0.40;;;0.40;;
13764;SDS011;6953;48.810;9.204;2023-10-19T04:29:02;0.50;;;0.50;;
13764;SDS011;6953;48.810;9.204;2023-10-19T04:31:35;0.40;;;0.40;;
13764;SDS011;6953;48.810;9.204;2023-10-19T04:34:19;0.50;;;0.50;;
13764;SDS011;6953;48.810;9.204;2023-10-19T04:36:50;0.40;;;0.40;;
13764;SDS011;6953;48.810;9.204;2023-10-19T04:39:15;0.40;;;0.40;;
13764;SDS011;6953;48.810;9.204;2023-10-19T04:41:44;0.35;;;0.35;;
13764;SDS011;6953;48.810;9.204;2023-10-19T04:44:10;0.30;;;0.30;;
13764;SDS011;6953;48.810;9.204;2023-10-19T04:46:35;0.30;;;0.30;;
13764;SDS011;6953;48.810;9.204;2023-10-19T04:49:01;0.30;;;0.30;;
13764;SDS011;6953;48.810;9.204;2023-10-19T04:51:28;0.40;;;0.40;;
13764;SDS011;6953;48.810;9.204;2023-10-19T04:53:54;0.40;;;0.40;;
13764;SDS011;6953;48.810;9.204;2023-10-19T04:56:20;0.40;;;0.40;;
13764;SDS011;6953;48.810;9.204;2023-10-19T04:58:46;0.40;;;0.40;;
13764;SDS011;6953;48.810;9.204;2023-10-19T05:01:12;0.50;;;0.50;;
13764;SDS011;6953;48.810;9.204;2023-10-19T05:03:37;0.40;;;0.40;;
13764;SDS011;6953;48.810;9.204;2023-10-19T05:06:03;0.40;;;0.40;;
13764;SDS011;6953;48.810;9.204;2023-10-19T05:08:29;0.45;;;0.45;;
13764;SDS011;6953;48.810;9.204;2023-10-19T05:10:55;0.43;;;0.43;;
13764;SDS011;6953;48.810;9.204;2023-10-19T05:13:24;0.40;;;0.40;;
13764;SDS011;6953;48.810;9.204;2023-10-19T05:15:50;0.40;;;0.40;;
13764;SDS011;6953;48.810;9.204;2023-10-19T05:18:18;0.40;;;0.40;;
13764;SDS011;6953;48.810;9.204;2023-10-19T05:20:44;0.35;;;0.35;;
13764;SDS011;6953;48.810;9.204;2023-10-19T05:23:11;0.40;;;0.40;;
13764;SDS011;6953;48.810;9.204;2023-10-19T05:25:38;0.50;;;0.50;;
13764;SDS011;6953;48.810;9.204;2023-10-19T05:28:04;0.40;;;0.40;;
13764;SDS011;6953;48.810;9.204;2023-10-19T05:30:31;0.40;;;0.40;;
13764;SDS011;6953;48.810;9.204;2023-10-19T05:32:57;0.30;;;0.30;;
13764;SDS011;6953;48.810;9.204;2023-10-19T05:35:24;0.20;;;0.20;;
13764;SDS011;6953;48.810;9.204;2023-10-19T05:37:51;0.40;;;0.40;;
13764;SDS011;6953;48.810;9.204;2023-10-19T05:40:17;0.40;;;0.40;;
13764;SDS011;6953;48.810;9.204;2023-10-19T05:42:44;0.30;;;0.30;;
13764;SDS011;6953;48.810;9.204;2023-10-19T05:45:13;0.52;;;0.52;;
13764;SDS011;6953;48.810;9.204;2023-10-19T05:47:38;0.40;;;0.40;;
13764;SDS011;6953;48.810;9.204;2023-10-19T05:50:04;0.40;;;0.40;;
13764;SDS011;6953;48.810;9.204;2023-10-19T05:52:30;0.40;;;0.40;;
13764;SDS011;6953;48.810;9.204;2023-10-19T05:54:55;0.40;;;0.40;;
13764;SDS011;6953;48.810;9.204;2023-10-19T05:57:22;0.40;;;0.40;;
13764;SDS011;6953;48.810;9.204;2023-10-19T05:59:47;0.50;;;0.50;;
13764;SDS011;6953;48.810;9.204;2023-10-19T06:02:13;0.40;;;0.40;;
13764;SDS011;6953;48.810;9.204;2023-10-19T06:04:38;0.40;;;0.40;;
13764;SDS011;6953;48.810;9.204;2023-10-19T06:07:03;0.40;;;0.40;;
13764;SDS011;6953;48.810;9.204;2023-10-19T06:09:28;0.40;;;0.40;;
13764;SDS011;6953;48.810;9.204;2023-10-19T06:11:57;0.40;;;0.40;;
13764;SDS011;6953;48.810;9.204;2023-10-19T06:14:22;0.30;;;0.30;;
13764;SDS011;6953;48.810;9.204;2023-10-19T06:16:47;0.40;;;0.40;;
13764;SDS011;6953;48.810;9.204;2023-10-19T06:19:13;0.40;;;0.40;;
13764;SDS011;6953;48.810;9.204;2023-10-19T06:21:38;0.50;;;0.50;;
13764;SDS011;6953;48.810;9.204;2023-10-19T06:24:05;0.45;;;0.45;;
13764;SDS011;6953;48.810;9.204;2023-10-19T06:26:30;0.40;;;0.40;;
13764;SDS011;6953;48.810;9.204;2023-10-19T06:28:56;0.40;;;0.40;;
13764;SDS011;6953;48.810;9.204;2023-10-19T06:31:24;0.50;;;0.50;;
13764;SDS011;6953;48.810;9.204;2023-10-19T06:33:51;0.40;;;0.40;;
13764;SDS011;6953;48.810;9.204;2023-10-19T06:36:17;0.50;;;0.50;;
13764;SDS011;6953;48.810;9.204;2023-10-19T06:38:44;0.40;;;0.40;;
13764;SDS011;6953;48.810;9.204;2023-10-19T06:41:10;0.38;;;0.38;;
13764;SDS011;6953;48.810;9.204;2023-10-19T06:43:37;0.35;;;0.35;;
13764;SDS011;6953;48.810;9.204;2023-10-19T06:46:05;0.40;;;0.40;;
13764;SDS011;6953;48.810;9.204;2023-10-19T06:48:32;0.40;;;0.40;;
13764;SDS011;6953;48.810;9.204;2023-10-19T06:50:58;0.50;;;0.50;;
13764;SDS011;6953;48.810;9.204;2023-10-19T06:53:23;0.40;;;0.40;;
13764;SDS011;6953;48.810;9.204;2023-10-19T06:55:49;0.40;;;0.40;;
13764;SDS011;6953;48.810;9.204;2023-10-19T06:58:14;0.30;;;0.30;;
13764;SDS011;6953;48.810;9.204;2023-10-19T07:00:40;0.30;;;0.30;;
13764;SDS011;6953;48.810;9.204;2023-10-19T07:03:08;0.45;;;0.45;;
13764;SDS011;6953;48.810;9.204;2023-10-19T07:05:33;0.40;;;0.40;;
13764;SDS011;6953;48.810;9.204;2023-10-19T07:07:59;0.45;;;0.45;;
13764;SDS011;6953;48.810;9.204;2023-10-19T07:10:26;0.40;;;0.40;;
13764;SDS011;6953;48.810;9.204;2023-10-19T07:12:52;0.40;;;0.40;;
13764;SDS011;6953;48.810;9.204;2023-10-19T07:15:19;0.30;;;0.30;;
13764;SDS011;6953;48.810;9.204;2023-10-19T07:17:45;0.20;;;0.20;;
13764;SDS011;6953;48.810;9.204;2023-10-19T07:20:14;0.40;;;0.40;;
13764;SDS011;6953;48.810;9.204;2023-10-19T07:23:00;0.40;;;0.40;;
13764;SDS011;6953;48.810;9.204;2023-10-19T07:25:43;0.40;;;0.40;;
13764;SDS011;6953;48.810;9.204;2023-10-19T07:28:10;0.30;;;0.30;;
13764;SDS011;6953;48.810;9.204;2023-10-19T07:30:35;0.30;;;0.30;;
13764;SDS011;6953;48.810;9.204;2023-10-19T07:33:02;0.35;;;0.35;;
13764;SDS011;6953;48.810;9.204;2023-10-19T07:35:33;0.47;;;0.47;;
13764;SDS011;6953;48.810;9.204;2023-10-19T07:38:02;0.30;;;0.30;;
13764;SDS011;6953;48.810;9.204;2023-10-19T07:40:29;0.30;;;0.30;;
13764;SDS011;6953;48.810;9.204;2023-10-19T07:42:54;0.28;;;0.28;;
13764;SDS011;6953;48.810;9.204;2023-10-19T07:45:20;0.20;;;0.20;;
13764;SDS011;6953;48.810;9.204;2023-10-19T07:47:46;0.30;;;0.30;;
13764;SDS011;6953;48.810;9.204;2023-10-19T07:50:12;0.30;;;0.30;;
13764;SDS011;6953;48.810;9.204;2023-10-19T07:52:41;0.30;;;0.30;;
13764;SDS011;6953;48.810;9.204;2023-10-19T07:55:15;0.30;;;0.30;;
13764;SDS011;6953;48.810;9.204;2023-10-19T07:57:41;0.30;;;0.30;;
13764;SDS011;6953;48.810;9.204;2023-10-19T08:00:08;0.30;;;0.30;;
13764;SDS011;6953;48.810;9.204;2023-10-19T08:02:35;0.20;;;0.20;;
13764;SDS011;6953;48.810;9.204;2023-10-19T08:05:03;0.20;;;0.20;;
13764;SDS011;6953;48.810;9.204;2023-10-19T08:07:29;0.20;;;0.20;;
13764;SDS011;6953;48.810;9.204;2023-10-19T08:09:55;0.20;;;0.20;;
13764;SDS011;6953;48.810;9.204;2023-10-19T08:12:23;0.20;;;0.20;;
13764;SDS011;6953;48.810;9.204;2023-10-19T08:14:51;0.20;;;0.20;;
13764;SDS011;6953;48.810;9.204;2023-10-19T08:17:17;0.20;;;0.20;;
13764;SDS011;6953;48.810;9.204;2023-10-19T08:19:42;0.20;;;0.20;;
13764;SDS011;6953;48.810;9.204;2023-10-19T08:22:07;0.20;;;0.20;;
13764;SDS011;6953;48.810;9.204;2023-10-19T08:24:33;0.20;;;0.20;;
13764;SDS011;6953;48.810;9.204;2023-10-19T08:27:00;0.20;;;0.20;;
13764;SDS011;6953;48.810;9.204;2023-10-19T08:29:26;0.10;;;0.10;;
13764;SDS011;6953;48.810;9.204;2023-10-19T08:31:51;0.20;;;0.20;;
13764;SDS011;6953;48.810;9.204;2023-10-19T08:34:16;0.10;;;0.10;;
13764;SDS011;6953;48.810;9.204;2023-10-19T08:36:42;0.10;;;0.10;;
13764;SDS011;6953;48.810;9.204;2023-10-19T08:39:08;0.10;;;0.10;;
13764;SDS011;6953;48.810;9.204;2023-10-19T08:41:36;0.10;;;0.10;;
13764;SDS011;6953;48.810;9.204;2023-10-19T08:44:07;0.10;;;0.10;;
13764;SDS011;6953;48.810;9.204;2023-10-19T08:46:40;0.05;;;0.05;;
13764;SDS011;6953;48.810;9.204;2023-10-19T08:49:09;0.10;;;0.10;;
13764;SDS011;6953;48.810;9.204;2023-10-19T08:51:37;0.10;;;0.10;;
13764;SDS011;6953;48.810;9.204;2023-10-19T08:54:03;0.00;;;0.00;;
13764;SDS011;6953;48.810;9.204;2023-10-19T08:56:30;0.00;;;0.00;;
13764;SDS011;6953;48.810;9.204;2023-10-19T08:58:58;0.10;;;0.10;;
13764;SDS011;6953;48.810;9.204;2023-10-19T09:01:23;0.10;;;0.10;;
13764;SDS011;6953;48.810;9.204;2023-10-19T09:03:49;0.10;;;0.10;;
13764;SDS011;6953;48.810;9.204;2023-10-19T09:06:15;0.00;;;0.00;;
13764;SDS011;6953;48.810;9.204;2023-10-19T09:08:40;0.00;;;0.00;;
13764;SDS011;6953;48.810;9.204;2023-10-19T09:11:07;0.10;;;0.10;;
13764;SDS011;6953;48.810;9.204;2023-10-19T09:13:49;0.00;;;0.00;;
13764;SDS011;6953;48.810;9.204;2023-10-19T09:16:21;0.10;;;0.10;;
13764;SDS011;6953;48.810;9.204;2023-10-19T09:18:48;0.10;;;0.10;;
13764;SDS011;6953;48.810;9.204;2023-10-19T09:21:17;0.00;;;0.00;;
13764;SDS011;6953;48.810;9.204;2023-10-19T09:23:50;0.00;;;0.00;;
13764;SDS011;6953;48.810;9.204;2023-10-19T09:26:17;0.00;;;0.00;;
13764;SDS011;6953;48.810;9.204;2023-10-19T09:28:45;0.05;;;0.05;;
13764;SDS011;6953;48.810;9.204;2023-10-19T09:31:12;0.08;;;0.08;;
13764;SDS011;6953;48.810;9.204;2023-10-19T09:33:40;0.10;;;0.10;;
13764;SDS011;6953;48.810;9.204;2023-10-19T09:36:06;0.00;;;0.00;;
13764;SDS011;6953;48.810;9.204;2023-10-19T09:38:38;0.00;;;0.00;;
13764;SDS011;6953;48.810;9.204;2023-10-19T09:41:22;0.00;;;0.00;;
13764;SDS011;6953;48.810;9.204;2023-10-19T09:43:53;0.00;;;0.00;;
13764;SDS011;6953;48.810;9.204;2023-10-19T09:46:29;0.00;;;0.00;;
13764;SDS011;6953;48.810;9.204;2023-10-19T09:48:57;0.10;;;0.10;;
13764;SDS011;6953;48.810;9.204;2023-10-19T09:51:23;0.10;;;0.10;;
13764;SDS011;6953;48.810;9.204;2023-10-19T09:53:52;0.00;;;0.00;;
13764;SDS011;6953;48.810;9.204;2023-10-19T09:56:33;0.00;;;0.00;;
13764;SDS011;6953;48.810;9.204;2023-10-19T09:59:05;0.00;;;0.00;;
13764;SDS011;6953;48.810;9.204;2023-10-19T10:04:37;0.10;;;0.10;;
13764;SDS011;6953;48.810;9.204;2023-10-19T10:07:05;0.10;;;0.10;;
13764;SDS011;6953;48.810;9.204;2023-10-19T10:09:34;0.10;;;0.10;;
13764;SDS011;6953;48.810;9.204;2023-10-19T10:14:54;0.10;;;0.10;;
13764;SDS011;6953;48.810;9.204;2023-10-19T10:17:23;0.13;;;0.13;;
13764;SDS011;6953;48.810;9.204;2023-10-19T10:19:49;0.10;;;0.10;;
13764;SDS011;6953;48.810;9.204;2023-10-19T10:22:15;0.10;;;0.10;;
13764;SDS011;6953;48.810;9.204;2023-10-19T10:24:46;0.10;;;0.10;;
13764;SDS011;6953;48.810;9.204;2023-10-19T10:27:15;0.10;;;0.10;;
13764;SDS011;6953;48.810;9.204;2023-10-19T10:29:54;0.10;;;0.10;;
13764;SDS011;6953;48.810;9.204;2023-10-19T10:32:43;0.20;;;0.20;;
13764;SDS011;6953;48.810;9.204;2023-10-19T10:35:08;0.20;;;0.20;;
13764;SDS011;6953;48.810;9.204;2023-10-19T10:37:36;0.10;;;0.10;;
13764;SDS011;6953;48.810;9.204;2023-10-19T10:40:02;0.10;;;0.10;;
13764;SDS011;6953;48.810;9.204;2023-10-19T10:42:31;0.15;;;0.15;;
13764;SDS011;6953;48.810;9.204;2023-10-19T10:44:56;0.10;;;0.10;;
13764;SDS011;6953;48.810;9.204;2023-10-19T10:47:22;0.10;;;0.10;;
13764;SDS011;6953;48.810;9.204;2023-10-19T10:49:56;0.20;;;0.20;;
13764;SDS011;6953;48.810;9.204;2023-10-19T10:52:30;0.20;;;0.20;;
13764;SDS011;6953;48.810;9.204;2023-10-19T10:55:10;0.10;;;0.10;;
13764;SDS011;6953;48.810;9.204;2023-10-19T10:57:36;0.10;;;0.10;;
13764;SDS011;6953;48.810;9.204;2023-10-19T11:00:06;0.20;;;0.20;;
13764;SDS011;6953;48.810;9.204;2023-10-19T11:02:35;0.10;;;0.10;;
13764;SDS011;6953;48.810;9.204;2023-10-19T11:05:01;0.17;;;0.17;;
13764;SDS011;6953;48.810;9.204;2023-10-19T11:07:26;0.20;;;0.20;;
13764;SDS011;6953;48.810;9.204;2023-10-19T11:09:52;0.13;;;0.13;;
13764;SDS011;6953;48.810;9.204;2023-10-19T11:12:17;0.20;;;0.20;;
13764;SDS011;6953;48.810;9.204;2023-10-19T11:14:57;0.17;;;0.17;;
13764;SDS011;6953;48.810;9.204;2023-10-19T11:17:41;0.10;;;0.10;;
13764;SDS011;6953;48.810;9.204;2023-10-19T11:20:07;0.20;;;0.20;;
13764;SDS011;6953;48.810;9.204;2023-10-19T11:22:44;0.20;;;0.20;;
13764;SDS011;6953;48.810;9.204;2023-10-19T11:25:20;0.20;;;0.20;;
13764;SDS011;6953;48.810;9.204;2023-10-19T11:27:46;0.20;;;0.20;;
13764;SDS011;6953;48.810;9.204;2023-10-19T11:30:22;0.20;;;0.20;;
13764;SDS011;6953;48.810;9.204;2023-10-19T11:32:51;0.20;;;0.20;;
13764;SDS011;6953;48.810;9.204;2023-10-19T11:35:26;0.20;;;0.20;;
13764;SDS011;6953;48.810;9.204;2023-10-19T11:37:55;0.20;;;0.20;;
13764;SDS011;6953;48.810;9.204;2023-10-19T11:40:23;0.20;;;0.20;;
13764;SDS011;6953;48.810;9.204;2023-10-19T11:42:50;0.20;;;0.20;;
13764;SDS011;6953;48.810;9.204;2023-10-19T11:45:16;0.20;;;0.20;;
13764;SDS011;6953;48.810;9.204;2023-10-19T11:47:43;0.17;;;0.17;;
13764;SDS011;6953;48.810;9.204;2023-10-19T11:50:09;0.20;;;0.20;;
13764;SDS011;6953;48.810;9.204;2023-10-19T11:52:37;0.20;;;0.20;;
13764;SDS011;6953;48.810;9.204;2023-10-19T11:55:03;0.20;;;0.20;;
13764;SDS011;6953;48.810;9.204;2023-10-19T11:57:30;0.20;;;0.20;;
13764;SDS011;6953;48.810;9.204;2023-10-19T11:59:55;0.20;;;0.20;;
13764;SDS011;6953;48.810;9.204;2023-10-19T12:02:22;0.20;;;0.20;;
13764;SDS011;6953;48.810;9.204;2023-10-19T12:04:47;0.20;;;0.20;;
13764;SDS011;6953;48.810;9.204;2023-10-19T12:07:12;0.20;;;0.20;;
13764;SDS011;6953;48.810;9.204;2023-10-19T12:09:38;0.20;;;0.20;;
13764;SDS011;6953;48.810;9.204;2023-10-19T12:12:06;0.20;;;0.20;;
13764;SDS011;6953;48.810;9.204;2023-10-19T12:14:32;0.20;;;0.20;;
13764;SDS011;6953;48.810;9.204;2023-10-19T12:17:00;0.20;;;0.20;;
13764;SDS011;6953;48.810;9.204;2023-10-19T12:19:27;0.20;;;0.20;;
13764;SDS011;6953;48.810;9.204;2023-10-19T12:21:56;0.20;;;0.20;;
13764;SDS011;6953;48.810;9.204;2023-10-19T12:24:22;0.30;;;0.30;;
13764;SDS011;6953;48.810;9.204;2023-10-19T12:26:48;0.20;;;0.20;;
13764;SDS011;6953;48.810;9.204;2023-10-19T12:29:13;0.30;;;0.30;;
13764;SDS011;6953;48.810;9.204;2023-10-19T12:31:41;0.20;;;0.20;;
13764;SDS011;6953;48.810;9.204;2023-10-19T12:34:06;0.20;;;0.20;;
13764;SDS011;6953;48.810;9.204;2023-10-19T12:36:32;0.30;;;0.30;;
13764;SDS011;6953;48.810;9.204;2023-10-19T12:39:00;0.20;;;0.20;;
13764;SDS011;6953;48.810;9.204;2023-10-19T12:41:25;0.28;;;0.28;;
13764;SDS011;6953;48.810;9.204;2023-10-19T12:43:52;0.20;;;0.20;;
13764;SDS011;6953;48.810;9.204;2023-10-19T12:46:22;0.30;;;0.30;;
13764;SDS011;6953;48.810;9.204;2023-10-19T12:48:53;0.20;;;0.20;;
13764;SDS011;6953;48.810;9.204;2023-10-19T12:51:22;0.30;;;0.30;;
13764;SDS011;6953;48.810;9.204;2023-10-19T12:53:49;0.30;;;0.30;;
13764;SDS011;6953;48.810;9.204;2023-10-19T12:56:16;0.30;;;0.30;;
13764;SDS011;6953;48.810;9.204;2023-10-19T12:58:43;0.30;;;0.30;;
13764;SDS011;6953;48.810;9.204;2023-10-19T13:01:08;0.30;;;0.30;;
13764;SDS011;6953;48.810;9.204;2023-10-19T13:03:41;0.20;;;0.20;;
13764;SDS011;6953;48.810;9.204;2023-10-19T13:06:07;0.25;;;0.25;;
13764;SDS011;6953;48.810;9.204;2023-10-19T13:08:32;0.20;;;0.20;;
13764;SDS011;6953;48.810;9.204;2023-10-19T13:10:57;0.20;;;0.20;;
13764;SDS011;6953;48.810;9.204;2023-10-19T13:13:23;0.30;;;0.30;;
13764;SDS011;6953;48.810;9.204;2023-10-19T13:15:49;0.30;;;0.30;;
13764;SDS011;6953;48.810;9.204;2023-10-19T13:18:15;0.20;;;0.20;;
13764;SDS011;6953;48.810;9.204;2023-10-19T13:20:52;0.30;;;0.30;;
13764;SDS011;6953;48.810;9.204;2023-10-19T13:23:19;0.20;;;0.20;;
13764;SDS011;6953;48.810;9.204;2023-10-19T13:25:46;0.20;;;0.20;;
13764;SDS011;6953;48.810;9.204;2023-10-19T13:28:15;0.25;;;0.25;;
13764;SDS011;6953;48.810;9.204;2023-10-19T13:30:52;0.20;;;0.20;;
13764;SDS011;6953;48.810;9.204;2023-10-19T13:33:18;0.28;;;0.28;;
13764;SDS011;6953;48.810;9.204;2023-10-19T13:35:46;0.20;;;0.20;;
13764;SDS011;6953;48.810;9.204;2023-10-19T13:38:16;0.30;;;0.30;;
13764;SDS011;6953;48.810;9.204;2023-10-19T13:40:42;0.20;;;0.20;;
13764;SDS011;6953;48.810;9.204;2023-10-19T13:43:09;0.30;;;0.30;;
13764;SDS011;6953;48.810;9.204;2023-10-19T13:45:38;0.22;;;0.22;;
13764;SDS011;6953;48.810;9.204;2023-10-19T13:48:05;0.20;;;0.20;;
13764;SDS011;6953;48.810;9.204;2023-10-19T13:50:33;0.20;;;0.20;;
13764;SDS011;6953;48.810;9.204;2023-10-19T13:52:59;0.20;;;0.20;;
13764;SDS011;6953;48.810;9.204;2023-10-19T13:55:30;0.20;;;0.20;;
13764;SDS011;6953;48.810;9.204;2023-10-19T13:57:56;0.20;;;0.20;;
13764;SDS011;6953;48.810;9.204;2023-10-19T14:00:22;0.20;;;0.20;;
13764;SDS011;6953;48.810;9.204;2023-10-19T14:03:04;0.20;;;0.20;;
13764;SDS011;6953;48.810;9.204;2023-10-19T14:05:35;0.20;;;0.20;;
13764;SDS011;6953;48.810;9.204;2023-10-19T14:08:01;0.20;;;0.20;;
13764;SDS011;6953;48.810;9.204;2023-10-19T14:10:28;0.20;;;0.20;;
13764;SDS011;6953;48.810;9.204;2023-10-19T14:12:54;0.20;;;0.20;;
13764;SDS011;6953;48.810;9.204;2023-10-19T14:15:19;0.20;;;0.20;;
13764;SDS011;6953;48.810;9.204;2023-10-19T14:17:45;0.30;;;0.30;;
13764;SDS011;6953;48.810;9.204;2023-10-19T14:20:16;0.20;;;0.20;;
13764;SDS011;6953;48.810;9.204;2023-10-19T14:23:00;0.30;;;0.30;;
13764;SDS011;6953;48.810;9.204;2023-10-19T14:25:26;0.20;;;0.20;;
13764;SDS011;6953;48.810;9.204;2023-10-19T14:27:52;0.20;;;0.20;;
13764;SDS011;6953;48.810;9.204;2023-10-19T14:30:26;0.30;;;0.30;;
13764;SDS011;6953;48.810;9.204;2023-10-19T14:32:56;0.30;;;0.30;;
13764;SDS011;6953;48.810;9.204;2023-10-19T14:35:22;0.20;;;0.20;;
13764;SDS011;6953;48.810;9.204;2023-10-19T14:37:49;0.30;;;0.30;;
13764;SDS011;6953;48.810;9.204;2023-10-19T14:40:19;0.20;;;0.20;;
13764;SDS011;6953;48.810;9.204;2023-10-19T14:42:46;0.30;;;0.30;;
13764;SDS011;6953;48.810;9.204;2023-10-19T14:45:13;0.20;;;0.20;;
13764;SDS011;6953;48.810;9.204;2023-10-19T14:47:41;0.20;;;0.20;;
13764;SDS011;6953;48.810;9.204;2023-10-19T14:50:10;0.25;;;0.25;;
13764;SDS011;6953;48.810;9.204;2023-10-19T14:52:37;0.30;;;0.30;;
13764;SDS011;6953;48.810;9.204;2023-10-19T14:55:03;0.20;;;0.20;;
13764;SDS011;6953;48.810;9.204;2023-10-19T14:57:31;0.40;;;0.40;;
13764;SDS011;6953;48.810;9.204;2023-10-19T14:59:57;0.20;;;0.20;;
13764;SDS011;6953;48.810;9.204;2023-10-19T15:02:23;0.22;;;0.22;;
13764;SDS011;6953;48.810;9.204;2023-10-19T15:04:49;0.28;;;0.28;;
13764;SDS011;6953;48.810;9.204;2023-10-19T15:07:15;0.20;;;0.20;;
13764;SDS011;6953;48.810;9.204;2023-10-19T15:09:40;0.20;;;0.20;;
13764;SDS011;6953;48.810;9.204;2023-10-19T15:12:05;0.20;;;0.20;;
13764;SDS011;6953;48.810;9.204;2023-10-19T15:14:32;0.20;;;0.20;;